Time;durP1;ratioP1;P1;durP2;ratioP2;P2;SDS_P1;SDS_P2;PMS_P1;PMS_P2;Temp;Humidity;BMP_temperature;BMP_pressure;BME280_temperature;BME280_humidity;BME280_pressure;Samples;Min_cycle;Max_cycle;Signal;HPM_P1;HPM_P2
2021/01/14 00:01:44;;;;;;;30.85;27.32;;;;;;;0.80;78.00;99007.48;125387;1127;22554;-74
2021/01/14 00:04:12;;;;;;;29.85;26.20;;;;;;;0.77;78.12;99006.91;125400;1127;22450;-74
2021/01/14 00:06:40;;;;;;;30.25;25.97;;;;;;;0.75;78.02;98998.45;125377;1127;22430;-74
2021/01/14 00:09:10;;;;;;;33.42;27.48;;;;;;;0.76;78.46;98998.30;125435;1126;22434;-74
2021/01/14 00:11:38;;;;;;;30.35;24.05;;;;;;;0.76;78.60;98998.30;125446;1130;22430;-75
2021/01/14 00:14:06;;;;;;;30.10;23.12;;;;;;;0.74;78.13;98995.04;125304;1129;22430;-75
2021/01/14 00:16:34;;;;;;;28.67;22.93;;;;;;;0.74;78.74;99000.23;125347;1127;24543;-75
2021/01/14 00:19:05;;;;;;;27.95;21.48;;;;;;;0.73;78.05;98993.38;125413;1127;22437;-75
2021/01/14 00:21:43;;;;;;;26.93;23.07;;;;;;;0.72;78.75;98990.93;125398;1126;22430;-75
2021/01/14 00:24:11;;;;;;;37.13;26.25;;;;;;;0.70;78.54;99002.30;125367;1127;22447;-74
2021/01/14 00:26:40;;;;;;;44.08;26.40;;;;;;;0.74;78.96;98994.22;125426;1130;22434;-75
2021/01/14 00:29:09;;;;;;;36.00;25.55;;;;;;;0.77;78.86;98999.11;125388;1127;22437;-75
2021/01/14 00:31:37;;;;;;;24.40;20.08;;;;;;;0.81;78.36;98995.30;125363;1127;23318;-75
2021/01/14 00:34:07;;;;;;;26.60;20.17;;;;;;;0.80;78.97;98994.48;125364;1127;22558;-75
2021/01/14 00:39:29;;;;;;;25.40;18.87;;;;;;;0.79;79.04;98985.03;125417;1127;22435;-74
2021/01/14 00:41:59;;;;;;;23.80;18.48;;;;;;;0.77;78.74;98988.72;125420;1127;22489;-76
2021/01/14 00:44:27;;;;;;;26.02;20.23;;;;;;;0.79;78.28;98990.23;125404;1126;22424;-73
2021/01/14 00:46:58;;;;;;;24.45;19.95;;;;;;;0.83;79.31;98991.58;125344;1127;22437;-73
2021/01/14 00:49:27;;;;;;;23.43;19.87;;;;;;;0.91;79.65;98991.72;125361;1126;22435;-73
2021/01/14 00:51:55;;;;;;;23.30;16.82;;;;;;;0.94;79.51;98988.03;125401;1126;22421;-73
2021/01/14 00:54:23;;;;;;;22.37;16.87;;;;;;;0.98;79.19;98991.17;125401;1127;22438;-73
2021/01/14 00:56:51;;;;;;;18.57;15.35;;;;;;;0.99;79.37;98998.82;125350;1128;22430;-74
2021/01/14 00:59:19;;;;;;;18.45;15.15;;;;;;;1.02;78.87;99008.13;125413;1127;22452;-74
2021/01/14 01:01:48;;;;;;;18.80;15.00;;;;;;;1.05;79.24;99007.85;125386;1127;23328;-74
2021/01/14 01:04:16;;;;;;;22.85;17.15;;;;;;;1.08;78.91;99007.58;125349;1127;22457;-74
2021/01/14 01:06:44;;;;;;;24.87;17.45;;;;;;;1.12;79.33;99012.34;125385;1127;23457;-74
2021/01/14 01:09:12;;;;;;;21.40;16.82;;;;;;;1.16;79.18;99008.50;125377;1126;24562;-74
2021/01/14 01:11:41;;;;;;;24.05;18.90;;;;;;;1.18;79.20;99011.79;125319;1127;22545;-74
2021/01/14 01:14:09;;;;;;;22.50;19.83;;;;;;;1.20;78.22;99016.87;125318;1127;24611;-74
2021/01/14 01:16:37;;;;;;;22.85;20.27;;;;;;;1.18;78.75;99010.97;125271;1130;22517;-74
2021/01/14 01:19:05;;;;;;;23.77;19.27;;;;;;;1.18;78.56;99018.78;125282;1127;24571;-74
2021/01/14 01:21:33;;;;;;;22.95;19.45;;;;;;;1.22;78.31;99027.94;125307;1126;23450;-74
2021/01/14 01:24:02;;;;;;;22.42;18.77;;;;;;;1.27;78.83;99015.34;125252;1127;22447;-74
2021/01/14 01:26:30;;;;;;;23.15;18.17;;;;;;;1.30;79.18;99022.86;125349;1126;22438;-73
2021/01/14 01:28:58;;;;;;;18.32;15.50;;;;;;;1.33;78.91;99016.53;125362;1127;22507;-74
2021/01/14 01:31:26;;;;;;;17.15;14.73;;;;;;;1.33;78.93;99017.37;125403;1127;24572;-74
2021/01/14 01:33:55;;;;;;;16.03;13.17;;;;;;;1.34;79.03;99021.61;125386;1130;22454;-75
2021/01/14 01:36:23;;;;;;;14.90;13.40;;;;;;;1.31;78.30;99021.08;125370;1127;22488;-74
2021/01/14 01:38:52;;;;;;;16.77;13.48;;;;;;;1.31;78.38;99021.08;125338;1129;22440;-76
2021/01/14 01:41:20;;;;;;;18.02;14.45;;;;;;;1.32;78.57;99026.13;125304;1127;22447;-75
2021/01/14 01:43:49;;;;;;;20.35;14.63;;;;;;;1.31;78.42;99026.28;125383;1127;22492;-76
2021/01/14 01:46:30;;;;;;;18.15;13.08;;;;;;;1.33;78.40;99030.39;125411;1126;22465;-73
2021/01/14 01:48:59;;;;;;;13.93;12.43;;;;;;;1.31;78.12;99037.50;125384;1130;22554;-75
2021/01/14 01:51:35;;;;;;;18.23;12.47;;;;;;;1.29;78.66;99031.61;125468;1127;24552;-73
2021/01/14 01:54:04;;;;;;;14.65;12.88;;;;;;;1.31;78.73;99029.70;125543;1127;22466;-75
2021/01/14 01:56:34;;;;;;;14.58;11.12;;;;;;;1.30;78.42;99028.07;125386;1127;22450;-75
2021/01/14 01:59:05;;;;;;;15.00;11.35;;;;;;;1.31;78.25;99032.30;125384;1126;22430;-75
2021/01/14 02:01:55;;;;;;;13.00;10.20;;;;;;;1.32;78.49;99031.33;125364;1127;22447;-74
2021/01/14 02:04:23;;;;;;;11.60;10.45;;;;;;;1.33;78.75;99022.59;125343;1127;24558;-74
2021/01/14 02:07:02;;;;;;;11.30;10.10;;;;;;;1.36;78.70;99032.68;125381;1126;22428;-74
2021/01/14 02:09:32;;;;;;;13.47;9.47;;;;;;;1.35;78.64;99031.05;125321;1127;22446;-74
2021/01/14 02:12:04;;;;;;;14.85;10.53;;;;;;;1.33;78.47;99027.79;125337;1127;24246;-74
2021/01/14 02:14:34;;;;;;;16.30;11.60;;;;;;;1.33;77.71;99032.99;125340;1129;22531;-74
2021/01/14 02:17:03;;;;;;;11.80;10.05;;;;;;;1.34;77.76;99032.02;125067;1129;22532;-74
2021/01/14 02:19:42;;;;;;;10.30;9.08;;;;;;;1.33;77.98;99032.99;125377;1127;22438;-74
2021/01/14 02:22:20;;;;;;;12.50;11.22;;;;;;;1.32;77.72;99041.73;125417;1127;22532;-74
2021/01/14 02:25:11;;;;;;;15.13;10.40;;;;;;;1.34;77.85;99044.22;125415;1127;22438;-74
2021/01/14 02:27:40;;;;;;;15.10;10.53;;;;;;;1.31;78.40;99050.52;125401;1126;24573;-74
2021/01/14 02:30:10;;;;;;;10.93;9.08;;;;;;;1.31;78.26;99050.52;125346;1127;22531;-75
2021/01/14 02:32:42;;;;;;;12.10;9.23;;;;;;;1.33;78.17;99058.16;125313;1129;22533;-74
2021/01/14 02:35:11;;;;;;;13.13;10.80;;;;;;;1.32;78.42;99054.75;125369;1127;24635;-75
2021/01/14 02:37:39;;;;;;;11.53;10.32;;;;;;;1.33;77.89;99063.37;125357;1127;23374;-75
2021/01/14 02:40:09;;;;;;;11.35;10.00;;;;;;;1.33;77.78;99058.16;125296;1126;22438;-75
2021/01/14 02:42:37;;;;;;;11.70;10.50;;;;;;;1.33;77.26;99061.61;125371;1127;22418;-75
2021/01/14 02:45:06;;;;;;;12.75;10.53;;;;;;;1.32;77.90;99062.55;125372;1127;22531;-75
2021/01/14 02:47:36;;;;;;;13.45;10.88;;;;;;;1.31;78.24;99066.13;125398;1127;23214;-75
2021/01/14 02:50:08;;;;;;;13.28;11.90;;;;;;;1.30;77.84;99072.30;125324;1127;22461;-75
2021/01/14 02:52:39;;;;;;;13.90;12.53;;;;;;;1.31;77.72;99076.53;125273;1129;22433;-74
2021/01/14 02:55:07;;;;;;;15.63;13.38;;;;;;;1.31;78.26;99084.34;125381;1126;24555;-74
2021/01/14 02:57:38;;;;;;;15.28;13.68;;;;;;;1.33;78.19;99087.63;125379;1126;22442;-74
2021/01/14 03:00:07;;;;;;;17.37;15.20;;;;;;;1.30;77.48;99081.86;125377;1127;22427;-76
2021/01/14 03:02:35;;;;;;;15.08;13.68;;;;;;;1.27;77.50;99089.97;125371;1127;22428;-74
2021/01/14 03:05:04;;;;;;;13.68;12.40;;;;;;;1.27;77.80;99098.59;125382;1127;22450;-74
2021/01/14 03:07:32;;;;;;;16.80;12.33;;;;;;;1.25;77.21;99095.30;125376;1127;22489;-73
2021/01/14 03:10:00;;;;;;;11.30;10.10;;;;;;;1.24;78.13;99096.27;125342;1127;24564;-74
2021/01/14 03:12:28;;;;;;;12.10;10.82;;;;;;;1.23;78.05;99104.19;125330;1127;25021;-74
2021/01/14 03:14:56;;;;;;;11.70;10.50;;;;;;;1.21;77.86;99101.74;125320;1126;22436;-74
2021/01/14 03:17:24;;;;;;;10.68;9.58;;;;;;;1.17;77.65;99111.61;125351;1127;22496;-74
2021/01/14 03:19:56;;;;;;;9.27;8.37;;;;;;;1.15;77.38;99108.31;125345;1126;22448;-74
2021/01/14 03:22:24;;;;;;;11.18;9.48;;;;;;;1.10;78.04;99110.52;125441;1126;22548;-74
2021/01/14 03:24:52;;;;;;;10.68;8.80;;;;;;;1.07;77.16;99113.39;125401;1126;22437;-74
2021/01/14 03:27:20;;;;;;;11.18;9.48;;;;;;;1.07;78.04;99120.38;125365;1127;23996;-74
2021/01/14 03:29:48;;;;;;;11.85;7.85;;;;;;;1.07;78.19;99115.17;125369;1127;22442;-74
2021/01/14 03:32:16;;;;;;;12.30;8.45;;;;;;;1.07;77.79;99117.77;125332;1131;22554;-74
2021/01/14 03:34:44;;;;;;;7.95;6.80;;;;;;;1.06;78.17;99122.13;125283;1127;22453;-75
2021/01/14 03:37:12;;;;;;;10.55;8.60;;;;;;;1.06;78.10;99122.13;125360;1127;22450;-76
2021/01/14 03:39:40;;;;;;;8.60;7.62;;;;;;;1.05;77.25;99117.08;125371;1130;22794;-74
2021/01/14 03:42:08;;;;;;;9.38;8.48;;;;;;;1.06;78.26;99124.73;125332;1127;25028;-74
2021/01/14 03:44:36;;;;;;;9.43;8.55;;;;;;;1.05;78.17;99127.48;125446;1127;24300;-73
2021/01/14 03:47:04;;;;;;;8.80;8.00;;;;;;;1.04;77.57;99131.87;125333;1130;22646;-73
2021/01/14 03:49:32;;;;;;;13.45;8.65;;;;;;;1.02;77.86;99133.77;125293;1127;22452;-73
2021/01/14 03:52:00;;;;;;;16.80;9.80;;;;;;;1.02;77.94;99143.36;125394;1127;22436;-74
2021/01/14 03:54:28;;;;;;;14.58;9.00;;;;;;;1.01;78.23;99142.55;125383;1127;22434;-74
2021/01/14 03:56:56;;;;;;;13.53;8.58;;;;;;;1.02;78.20;99140.76;125317;1130;22444;-73
2021/01/14 03:59:25;;;;;;;13.50;8.28;;;;;;;1.01;77.52;99147.74;125363;1128;22418;-73
2021/01/14 04:02:07;;;;;;;14.40;9.80;;;;;;;1.02;78.01;99148.56;125014;1127;22454;-73
2021/01/14 04:04:41;;;;;;;11.68;8.53;;;;;;;1.01;77.74;99154.73;125329;1126;24552;-74
2021/01/14 04:07:11;;;;;;;11.88;8.88;;;;;;;1.00;77.92;99156.52;125381;1126;22564;-72
2021/01/14 04:09:42;;;;;;;13.38;8.70;;;;;;;1.00;78.04;99151.31;125313;1127;24591;-73
2021/01/14 04:12:10;;;;;;;11.55;9.78;;;;;;;1.00;77.58;99163.47;125422;1127;22494;-73
2021/01/14 04:14:38;;;;;;;13.43;9.58;;;;;;;0.98;77.71;99163.61;125364;1127;22472;-73
2021/01/14 04:17:06;;;;;;;13.93;10.25;;;;;;;0.98;77.87;99173.20;125328;1130;22441;-74
2021/01/14 04:19:34;;;;;;;11.80;10.05;;;;;;;0.97;78.17;99169.78;125342;1127;22441;-75
2021/01/14 04:22:02;;;;;;;12.47;9.98;;;;;;;0.98;77.85;99171.41;125262;1130;22430;-75
2021/01/14 04:24:36;;;;;;;10.28;9.38;;;;;;;0.98;78.15;99174.02;125328;1127;22438;-75
2021/01/14 04:27:05;;;;;;;10.85;9.75;;;;;;;0.99;78.10;99185.23;125384;1127;22438;-75
2021/01/14 04:29:33;;;;;;;16.67;11.18;;;;;;;0.98;78.19;99184.42;125367;1127;23380;-75
2021/01/14 04:32:02;;;;;;;12.18;10.90;;;;;;;0.97;77.45;99187.98;125391;1127;22430;-75
2021/01/14 04:34:30;;;;;;;11.93;10.75;;;;;;;0.99;78.24;99188.66;125354;1129;22431;-75
2021/01/14 04:37:00;;;;;;;12.85;11.43;;;;;;;1.00;77.35;99195.52;125366;1127;23377;-75
2021/01/14 04:39:29;;;;;;;14.40;13.08;;;;;;;1.00;77.84;99202.47;125334;1127;22471;-75
2021/01/14 04:41:59;;;;;;;14.73;13.20;;;;;;;1.00;78.17;99200.72;125335;1130;23230;-75
2021/01/14 04:44:27;;;;;;;14.73;13.22;;;;;;;1.01;78.15;99209.34;125331;1127;24329;-75
2021/01/14 04:47:14;;;;;;;16.23;14.68;;;;;;;1.01;77.34;99204.95;125391;1127;24558;-75
2021/01/14 04:49:42;;;;;;;26.33;24.15;;;;;;;1.01;77.71;99204.95;125416;1127;22414;-74
2021/01/14 04:52:17;;;;;;;22.42;20.02;;;;;;;1.02;78.08;99208.37;125304;1129;22431;-74
2021/01/14 04:54:46;;;;;;;22.65;20.45;;;;;;;1.04;78.00;99214.27;125347;1130;22443;-75
2021/01/14 04:57:18;;;;;;;25.15;22.37;;;;;;;1.04;78.34;99217.69;125318;1130;22453;-75
2021/01/14 04:59:53;;;;;;;25.17;22.85;;;;;;;1.05;78.08;99211.53;125372;1127;22439;-74
2021/01/14 05:02:24;;;;;;;22.87;20.57;;;;;;;1.05;77.30;99219.33;125413;1127;24654;-75
2021/01/14 05:04:54;;;;;;;24.30;22.10;;;;;;;1.05;78.15;99221.92;125410;1127;22434;-75
2021/01/14 05:07:32;;;;;;;21.68;19.50;;;;;;;1.06;77.88;99220.14;125398;1126;22422;-74
2021/01/14 05:10:05;;;;;;;21.90;19.77;;;;;;;1.08;78.22;99231.25;125076;1126;25209;-75
2021/01/14 05:12:34;;;;;;;22.37;20.05;;;;;;;1.06;77.38;99238.34;125335;1127;22452;-74
2021/01/14 05:15:04;;;;;;;23.38;21.05;;;;;;;1.06;77.79;99239.17;125304;1126;22460;-75
2021/01/14 05:17:33;;;;;;;23.15;20.72;;;;;;;1.07;77.87;99245.22;125307;1127;24552;-75
2021/01/14 05:20:05;;;;;;;24.70;21.93;;;;;;;1.09;77.85;99243.28;125346;1130;22441;-75
2021/01/14 05:22:38;;;;;;;23.87;21.37;;;;;;;1.10;77.83;99256.17;125422;1127;22435;-75
2021/01/14 05:25:10;;;;;;;25.70;23.20;;;;;;;1.12;78.35;99267.25;125467;1128;22509;-75
2021/01/14 05:27:39;;;;;;;29.52;26.48;;;;;;;1.14;78.36;99272.33;124978;1127;22736;-75
2021/01/14 05:30:12;;;;;;;32.38;29.12;;;;;;;1.16;77.75;99275.61;125373;1131;22447;-74
2021/01/14 05:32:43;;;;;;;36.45;32.55;;;;;;;1.16;78.40;99273.00;125023;1127;24383;-76
2021/01/14 05:35:15;;;;;;;39.10;34.07;;;;;;;1.16;77.60;99278.20;125451;1127;24568;-75
2021/01/14 05:37:43;;;;;;;;;;;;;;;1.11;78.05;99277.80;125451;1128;22799;-76
2021/01/14 05:40:22;;;;;;;37.98;33.78;;;;;;;1.07;77.58;99289.44;125274;1127;21320;-76
2021/01/14 05:43:20;;;;;;;41.65;34.50;;;;;;;1.07;78.26;99299.84;125361;1127;22531;-76
2021/01/14 05:45:48;;;;;;;38.98;34.03;;;;;;;1.07;77.90;99300.66;124858;1130;22479;-75
2021/01/14 05:48:16;;;;;;;36.98;31.23;;;;;;;1.09;77.64;99305.70;124601;1133;24079;-75
2021/01/14 05:50:47;;;;;;;41.45;33.95;;;;;;;1.10;78.29;99313.39;124876;1132;22461;-75
2021/01/14 05:53:19;;;;;;;39.40;34.48;;;;;;;1.08;78.34;99309.27;124890;1130;22517;-75
2021/01/14 05:55:51;;;;;;;53.28;42.73;;;;;;;1.06;77.55;99321.58;124917;1130;22524;-75
2021/01/14 05:58:20;;;;;;;61.20;44.13;;;;;;;1.04;78.06;99326.92;124879;1130;25116;-76
2021/01/14 06:00:49;;;;;;;61.37;44.15;;;;;;;1.03;78.10;99337.45;124865;1133;22470;-76
2021/01/14 06:03:28;;;;;;;65.62;43.02;;;;;;;1.04;77.48;99336.51;124836;1133;22472;-75
2021/01/14 06:05:58;;;;;;;57.35;41.77;;;;;;;1.04;78.53;99339.11;124890;1133;22577;-75
2021/01/14 06:08:28;;;;;;;48.83;38.58;;;;;;;1.04;77.74;99349.52;124890;1130;22487;-75
2021/01/14 06:10:56;;;;;;;57.00;43.58;;;;;;;1.04;77.74;99355.53;124922;1130;22471;-75
2021/01/14 06:13:40;;;;;;;36.53;32.30;;;;;;;1.04;78.43;99347.73;124873;1130;24590;-75
2021/01/14 06:16:09;;;;;;;38.80;32.93;;;;;;;1.03;78.40;99358.25;124859;1130;22484;-76
2021/01/14 06:18:38;;;;;;;37.80;32.25;;;;;;;1.03;78.05;99363.45;124866;1133;22472;-75
2021/01/14 06:21:07;;;;;;;39.90;33.40;;;;;;;1.02;78.12;99372.22;124861;1130;22470;-76
2021/01/14 06:23:47;;;;;;;38.92;34.38;;;;;;;1.02;78.09;99374.81;125325;1130;22441;-75
2021/01/14 06:26:27;;;;;;;48.10;39.13;;;;;;;1.01;78.42;99381.80;125386;1127;22545;-75
2021/01/14 06:28:56;;;;;;;49.20;39.35;;;;;;;1.01;77.54;99383.58;125404;1129;22448;-76
2021/01/14 06:31:26;;;;;;;50.73;39.25;;;;;;;1.02;78.08;99393.02;125338;1127;22434;-74
2021/01/14 06:33:55;;;;;;;48.83;38.25;;;;;;;1.01;78.23;99399.19;125395;1127;24568;-74
2021/01/14 06:36:33;;;;;;;39.27;33.78;;;;;;;1.02;78.40;99408.63;125363;1127;24607;-74
2021/01/14 06:39:12;;;;;;;37.70;33.55;;;;;;;1.00;78.01;99410.52;125337;1130;22442;-74
2021/01/14 06:41:44;;;;;;;38.80;32.83;;;;;;;0.98;78.46;99410.66;125488;1127;24303;-74
2021/01/14 06:44:15;;;;;;;40.48;36.05;;;;;;;0.98;78.01;99417.65;125366;1126;22445;-74
2021/01/14 06:46:43;;;;;;;39.77;35.47;;;;;;;0.97;78.22;99426.38;125402;1127;22446;-74
2021/01/14 06:49:14;;;;;;;43.80;38.73;;;;;;;0.95;78.25;99436.92;125361;1128;22444;-74
2021/01/14 06:52:03;;;;;;;41.63;37.40;;;;;;;0.91;78.11;99438.97;125405;1130;22437;-74
2021/01/14 06:54:39;;;;;;;46.65;40.90;;;;;;;0.90;77.49;99454.67;125381;1127;22437;-74
2021/01/14 06:57:15;;;;;;;46.45;40.45;;;;;;;0.90;78.02;99458.13;125372;1127;23220;-74
2021/01/14 06:59:46;;;;;;;48.78;43.68;;;;;;;0.89;78.33;99464.26;125423;1127;22454;-74
2021/01/14 07:02:53;;;;;;;47.62;41.08;;;;;;;0.90;78.18;99481.53;125328;1127;22429;-74
2021/01/14 07:05:37;;;;;;;50.10;42.38;;;;;;;0.88;77.63;99482.60;125459;1127;24605;-74
2021/01/14 07:08:39;;;;;;;45.23;40.23;;;;;;;0.88;78.59;99487.80;125371;1127;22437;-80
2021/01/14 07:11:18;;;;;;;47.53;40.63;;;;;;;0.88;77.72;99493.82;124916;1130;22440;-79
2021/01/14 07:13:52;;;;;;;46.40;39.90;;;;;;;0.89;77.60;99494.64;125018;1130;22552;-79
2021/01/14 07:16:23;;;;;;;46.13;39.08;;;;;;;0.92;78.41;99497.81;124942;1134;22451;-78
2021/01/14 07:18:52;;;;;;;45.40;39.13;;;;;;;0.94;78.30;99511.52;125016;1130;22446;-79
2021/01/14 07:25:39;;;;;;;40.95;34.85;;;;;;;0.93;78.70;99519.44;124871;1133;23328;-78
2021/01/14 07:28:09;;;;;;;42.83;37.55;;;;;;;0.94;78.49;99527.13;124892;1133;22450;-78
2021/01/14 07:30:37;;;;;;;44.42;39.58;;;;;;;0.96;78.31;99518.36;124891;1130;22537;-78
2021/01/14 07:33:06;;;;;;;47.15;38.70;;;;;;;0.98;78.73;99532.08;124886;1130;24460;-78
2021/01/14 07:35:45;;;;;;;45.83;40.83;;;;;;;0.99;78.45;99549.32;124928;1129;22469;-78
2021/01/14 07:38:18;;;;;;;50.40;44.20;;;;;;;1.00;78.70;99545.76;124873;1130;22543;-78
2021/01/14 07:41:00;;;;;;;61.18;51.80;;;;;;;1.03;77.98;99558.52;124879;1129;24867;-78
2021/01/14 07:43:32;;;;;;;51.70;42.93;;;;;;;1.07;78.01;99570.34;124887;1130;22484;-77
2021/01/14 07:46:16;;;;;;;51.85;43.02;;;;;;;1.08;78.41;99575.41;125018;1129;22450;-80
2021/01/14 07:48:44;;;;;;;48.33;42.17;;;;;;;1.08;78.61;99585.80;125254;1130;22492;-80
2021/01/14 07:51:13;;;;;;;48.78;41.40;;;;;;;1.11;78.27;99587.34;125364;1128;22454;-80
2021/01/14 07:53:41;;;;;;;47.10;39.75;;;;;;;1.10;78.49;99598.67;125361;1129;23220;-80
2021/01/14 07:56:25;;;;;;;47.08;41.80;;;;;;;1.06;78.06;99600.70;125368;1131;22652;-80
2021/01/14 07:58:58;;;;;;;52.20;42.65;;;;;;;1.04;78.41;99614.81;125378;1130;22438;-80
2021/01/14 08:01:26;;;;;;;;;;;;;;;1.00;77.59;99619.44;125404;1131;22445;-80
2021/01/14 08:03:54;;;;;;;49.03;40.73;;;;;;;0.96;77.67;99627.59;125421;1127;22825;-80
2021/01/14 08:06:29;;;;;;;49.83;40.92;;;;;;;0.98;77.99;99638.70;125346;1127;22439;-80
2021/01/14 08:09:03;;;;;;;46.70;38.83;;;;;;;1.01;78.27;99648.86;125894;1127;22537;-76
2021/01/14 08:11:33;;;;;;;52.15;42.17;;;;;;;1.03;77.94;99644.34;125513;1127;25196;-79
2021/01/14 08:14:34;;;;;;;51.98;42.93;;;;;;;1.05;78.46;99653.69;125705;1127;22436;-77
2021/01/14 08:17:21;;;;;;;54.42;41.15;;;;;;;1.05;78.41;99664.09;125345;1127;22454;-79
2021/01/14 08:19:50;;;;;;;56.13;42.38;;;;;;;1.05;78.29;99671.89;125425;1129;22906;-79
2021/01/14 08:22:19;;;;;;;54.45;42.35;;;;;;;1.11;77.55;99668.80;125410;1127;24562;-78
2021/01/14 08:24:59;;;;;;;46.70;37.95;;;;;;;1.13;77.69;99679.92;125361;1127;22451;-79
2021/01/14 08:27:35;;;;;;;48.25;37.40;;;;;;;1.13;77.72;99684.27;125394;1127;24133;-78
2021/01/14 08:30:15;;;;;;;49.42;38.28;;;;;;;1.14;77.25;99688.55;125401;1127;22436;-79
2021/01/14 08:32:49;;;;;;;49.85;36.90;;;;;;;1.14;77.92;99698.95;125442;1127;22498;-78
2021/01/14 08:35:31;;;;;;;47.27;38.78;;;;;;;1.17;77.03;99706.52;125417;1127;24581;-79
2021/01/14 08:38:07;;;;;;;58.50;45.17;;;;;;;1.19;76.83;99715.00;125342;1127;22437;-78
2021/01/14 08:40:39;;;;;;;66.90;46.60;;;;;;;1.21;76.83;99718.31;125313;1128;22454;-79
2021/01/14 08:43:18;;;;;;;59.88;42.98;;;;;;;1.21;77.56;99720.92;125425;1127;22530;-78
2021/01/14 08:45:56;;;;;;;60.78;45.60;;;;;;;1.21;77.41;99728.72;125420;1130;22441;-79
2021/01/14 08:48:29;;;;;;;50.55;38.92;;;;;;;1.20;77.03;99734.03;125530;1127;22436;-76
2021/01/14 08:50:58;;;;;;;54.63;40.10;;;;;;;1.16;77.12;99741.26;125452;1127;22476;-79
2021/01/14 08:53:32;;;;;;;69.58;44.88;;;;;;;1.14;76.75;99748.38;125411;1127;22459;-79
2021/01/14 08:56:02;;;;;;;77.82;47.67;;;;;;;1.16;76.20;99751.67;125422;1127;22663;-79
2021/01/14 08:58:41;;;;;;;66.57;45.15;;;;;;;1.15;76.05;99752.62;125444;1127;22453;-79
2021/01/14 09:01:18;;;;;;;73.20;48.17;;;;;;;1.11;75.87;99762.45;125463;1127;22453;-79
2021/01/14 09:03:49;;;;;;;80.32;53.78;;;;;;;1.04;76.28;99763.06;125415;1129;22456;-79
2021/01/14 09:06:29;;;;;;;73.62;55.33;;;;;;;1.00;76.14;99766.83;125453;1127;22454;-79
2021/01/14 09:08:59;;;;;;;97.15;65.10;;;;;;;0.94;75.75;99776.78;125359;1127;24597;-80
2021/01/14 09:11:28;;;;;;;107.22;67.37;;;;;;;0.92;75.92;99778.67;125407;1127;22444;-80
2021/01/14 09:14:11;;;;;;;128.25;76.72;;;;;;;0.88;76.11;99772.06;125322;1127;24569;-80
2021/01/14 09:16:42;;;;;;;83.05;58.95;;;;;;;0.82;75.33;99782.94;125380;1127;22755;-80
2021/01/14 09:19:24;;;;;;;80.27;57.50;;;;;;;0.77;76.02;99782.48;125380;1129;22454;-80
2021/01/14 09:21:52;;;;;;;83.60;58.20;;;;;;;0.74;75.92;99790.52;125361;1127;22590;-80
2021/01/14 09:24:20;;;;;;;86.32;55.65;;;;;;;0.75;76.15;99801.73;125393;1127;22525;-78
2021/01/14 09:26:51;;;;;;;80.62;53.55;;;;;;;0.79;76.36;99803.97;125338;1127;24371;-79
2021/01/14 09:29:29;;;;;;;82.42;55.73;;;;;;;0.84;76.11;99811.44;125384;1127;22454;-81
2021/01/14 09:31:58;;;;;;;87.50;56.85;;;;;;;0.88;75.50;99813.67;125328;1127;22451;-81
2021/01/14 09:34:26;;;;;;;78.45;55.35;;;;;;;0.97;75.84;99817.34;125407;1127;22435;-80
2021/01/14 09:36:55;;;;;;;77.60;57.40;;;;;;;1.07;76.35;99827.86;125387;1127;24300;-79
2021/01/14 09:39:26;;;;;;;72.78;52.60;;;;;;;1.16;75.61;99827.11;125347;1128;22446;-80
2021/01/14 09:41:56;;;;;;;82.75;51.53;;;;;;;1.31;76.87;99841.53;125407;1127;22459;-78
2021/01/14 09:44:32;;;;;;;80.10;53.05;;;;;;;1.42;76.55;99840.67;125605;1127;22459;-78
2021/01/14 09:47:00;;;;;;;79.50;57.00;;;;;;;1.57;75.98;99857.69;125357;1127;24589;-76
2021/01/14 09:49:28;;;;;;;78.62;56.37;;;;;;;1.68;75.40;99851.63;125424;1127;22455;-77
2021/01/14 09:51:57;;;;;;;75.00;53.95;;;;;;;1.76;75.66;99861.41;125350;1130;22441;-76
2021/01/14 09:54:26;;;;;;;75.90;55.00;;;;;;;1.81;75.56;99865.31;125334;1127;22443;-77
2021/01/14 09:56:56;;;;;;;84.85;59.42;;;;;;;1.89;74.81;99872.50;125323;1127;22459;-75
2021/01/14 09:59:43;;;;;;;81.67;58.63;;;;;;;1.97;74.52;99874.50;125468;1127;22538;-78
2021/01/14 10:02:29;;;;;;;81.12;55.55;;;;;;;2.20;75.44;99875.20;125421;1127;22538;-76
2021/01/14 10:05:01;;;;;;;87.37;61.73;;;;;;;2.46;75.20;99871.28;125387;1126;22538;-76
2021/01/14 10:07:34;;;;;;;91.50;68.00;;;;;;;2.62;74.47;99880.44;125278;1129;22486;-76
2021/01/14 10:10:05;;;;;;;92.02;67.10;;;;;;;2.72;74.32;99882.14;125347;1127;22441;-76
2021/01/14 10:12:33;;;;;;;96.00;70.15;;;;;;;2.75;73.67;99886.28;125476;1126;22459;-81
2021/01/14 10:15:13;;;;;;;100.70;68.33;;;;;;;2.75;73.23;99891.50;125611;1130;22441;-81
2021/01/14 10:17:42;;;;;;;85.50;62.03;;;;;;;2.64;71.91;99892.41;125367;1127;22459;-79
2021/01/14 10:20:13;;;;;;;87.80;65.80;;;;;;;2.56;72.20;99898.23;125424;1127;24558;-79
2021/01/14 10:22:59;;;;;;;81.08;64.92;;;;;;;2.49;71.58;99901.49;125360;1127;22444;-79
2021/01/14 10:25:27;;;;;;;83.92;65.32;;;;;;;2.42;71.88;99906.38;125362;1127;23291;-79
2021/01/14 10:28:04;;;;;;;85.60;66.30;;;;;;;2.36;71.41;99902.49;125366;1126;22450;-79
2021/01/14 10:30:40;;;;;;;84.55;62.23;;;;;;;2.34;71.30;99911.41;125398;1127;22437;-79
2021/01/14 10:33:09;;;;;;;67.90;53.25;;;;;;;2.28;71.88;99920.55;125331;1129;22436;-80
2021/01/14 10:35:39;;;;;;;68.60;53.30;;;;;;;2.20;70.94;99922.12;125363;1126;23233;-79
2021/01/14 10:38:12;;;;;;;63.83;49.98;;;;;;;2.15;71.20;99919.89;125408;1127;24327;-79
2021/01/14 10:40:42;;;;;;;60.15;49.48;;;;;;;2.09;71.92;99933.41;125360;1127;22450;-81
2021/01/14 10:43:37;;;;;;;58.45;47.13;;;;;;;2.03;71.69;99926.09;125389;1127;22454;-80
2021/01/14 10:46:07;;;;;;;59.50;49.58;;;;;;;2.03;71.72;99926.09;125636;1127;22444;-75
2021/01/14 10:48:41;;;;;;;65.70;50.60;;;;;;;2.00;71.27;99931.54;125437;1127;22441;-78
2021/01/14 10:51:09;;;;;;;68.52;56.75;;;;;;;1.98;71.68;99936.06;125409;1127;22586;-77
2021/01/14 10:53:38;;;;;;;66.62;53.87;;;;;;;1.94;71.25;99935.48;125416;1127;22441;-76
2021/01/14 10:56:14;;;;;;;64.42;50.55;;;;;;;1.88;72.00;99933.37;125408;1127;25154;-74
2021/01/14 10:58:42;;;;;;;66.12;53.20;;;;;;;1.88;71.79;99944.61;125391;1129;22446;-74
2021/01/14 11:01:21;;;;;;;61.75;48.50;;;;;;;1.84;71.91;99943.20;125437;1129;22451;-74
2021/01/14 11:03:50;;;;;;;61.68;49.48;;;;;;;1.82;71.54;99955.51;125551;1126;22459;-74
2021/01/14 11:06:30;;;;;;;60.90;50.93;;;;;;;1.85;72.39;99955.27;125508;1127;22453;-74
2021/01/14 11:09:10;;;;;;;59.95;47.75;;;;;;;1.84;71.68;99953.63;125505;1127;24306;-75
2021/01/14 11:11:39;;;;;;;65.85;48.30;;;;;;;1.85;72.15;99944.84;125713;1127;22753;-74
2021/01/14 11:14:07;;;;;;;57.83;44.15;;;;;;;1.90;72.31;99957.53;125508;1126;24572;-74
2021/01/14 11:16:35;;;;;;;56.75;45.33;;;;;;;1.97;72.64;99963.08;125476;1127;22512;-74
2021/01/14 11:19:04;;;;;;;64.58;49.13;;;;;;;2.01;72.78;99960.09;125489;1131;22448;-74
2021/01/14 11:21:34;;;;;;;60.63;47.93;;;;;;;2.08;72.50;99963.03;125506;1127;22490;-75
2021/01/14 11:24:06;;;;;;;59.35;43.63;;;;;;;2.09;71.84;99959.47;125516;1127;22460;-77
2021/01/14 11:26:34;;;;;;;52.10;42.08;;;;;;;2.06;72.50;99955.33;125474;1130;22451;-75
2021/01/14 11:29:03;;;;;;;60.73;46.90;;;;;;;2.00;72.02;99953.23;125544;1127;22445;-74
2021/01/14 11:31:32;;;;;;;64.50;47.50;;;;;;;1.91;72.13;99958.34;125505;1127;22441;-74
2021/01/14 11:34:00;;;;;;;64.67;50.75;;;;;;;1.83;71.54;99961.54;125452;1127;22538;-75
2021/01/14 11:36:28;;;;;;;64.22;49.93;;;;;;;1.77;71.39;99970.69;125515;1126;22450;-75
2021/01/14 11:38:56;;;;;;;67.60;50.95;;;;;;;1.70;71.44;99963.45;125468;1130;22529;-75
2021/01/14 11:41:27;;;;;;;64.50;49.90;;;;;;;1.74;72.38;99963.11;125431;1130;24062;-74
2021/01/14 11:43:55;;;;;;;61.90;49.73;;;;;;;1.80;72.48;99972.20;125505;1127;22608;-75
2021/01/14 11:46:27;;;;;;;61.50;48.67;;;;;;;1.83;72.40;99972.81;125535;1129;22445;-75
2021/01/14 11:48:55;;;;;;;66.80;51.13;;;;;;;1.86;72.31;99974.32;125502;1127;22519;-75